createdAt,value
2024-05-09T00:00:30.366Z,39.63
2024-05-09T00:03:04.745Z,97.68
2024-05-09T00:05:31.137Z,47.92
2024-05-09T00:07:57.390Z,46.83
2024-05-09T00:10:32.630Z,39.00
2024-05-09T00:13:03.388Z,36.20
2024-05-09T00:15:29.585Z,29.75
2024-05-09T00:17:55.940Z,30.52
2024-05-09T00:20:28.514Z,35.05
2024-05-09T00:23:02.425Z,31.52
2024-05-09T00:25:28.548Z,32.97
2024-05-09T00:27:54.715Z,29.63
2024-05-09T00:30:28.014Z,34.97
2024-05-09T00:32:59.589Z,32.47
2024-05-09T00:35:27.914Z,36.53
2024-05-09T00:37:54.205Z,33.28
2024-05-09T00:40:30.751Z,27.92
2024-05-09T00:43:04.591Z,36.50
2024-05-09T00:45:30.707Z,35.33
2024-05-09T00:47:58.178Z,32.60
2024-05-09T00:50:33.374Z,34.35
2024-05-09T00:53:05.277Z,34.78
2024-05-09T00:55:31.622Z,35.25
2024-05-09T00:57:57.748Z,31.05
2024-05-09T01:00:31.517Z,33.50
2024-05-09T01:03:05.030Z,38.05
2024-05-09T01:05:31.403Z,31.63
2024-05-09T01:07:57.641Z,34.33
2024-05-09T01:10:33.522Z,40.53
2024-05-09T01:13:02.248Z,44.65
2024-05-09T01:15:28.427Z,38.13
2024-05-09T01:17:55.010Z,35.08
2024-05-09T01:20:31.757Z,34.45
2024-05-09T01:23:16.061Z,34.17
2024-05-09T01:26:17.006Z,34.83
2024-05-09T01:28:43.469Z,33.63
2024-05-09T01:31:09.626Z,34.35
2024-05-09T01:33:35.953Z,34.28
2024-05-09T01:36:02.241Z,33.90
2024-05-09T01:38:30.660Z,32.30
2024-05-09T01:40:57.408Z,34.50
2024-05-09T01:43:23.909Z,34.25
2024-05-09T01:45:50.038Z,40.00
2024-05-09T01:48:16.345Z,55.45
2024-05-09T01:50:43.371Z,50.35
2024-05-09T01:53:11.601Z,139.68
2024-05-09T01:55:40.052Z,132.13
2024-05-09T01:58:06.343Z,62.45
2024-05-09T02:00:38.971Z,44.33
2024-05-09T02:03:09.708Z,41.42
2024-05-09T02:05:36.509Z,38.67
2024-05-09T02:08:03.288Z,37.78
2024-05-09T02:10:32.717Z,33.17
2024-05-09T02:13:01.680Z,35.38
2024-05-09T02:15:27.955Z,36.78
2024-05-09T02:17:54.486Z,35.97
2024-05-09T02:20:30.158Z,34.92
2024-05-09T02:23:02.186Z,35.88
2024-05-09T02:25:29.188Z,34.20
2024-05-09T02:27:55.433Z,33.10
2024-05-09T02:30:30.907Z,35.90
2024-05-09T02:33:05.278Z,35.05
2024-05-09T02:35:31.711Z,36.33
2024-05-09T02:37:58.002Z,33.33
2024-05-09T02:40:33.204Z,37.00
2024-05-09T02:43:03.627Z,36.90
2024-05-09T02:45:32.013Z,36.65
2024-05-09T02:47:58.733Z,33.45
2024-05-09T02:50:33.554Z,37.83
2024-05-09T02:53:04.619Z,39.30
2024-05-09T02:55:30.788Z,34.55
2024-05-09T02:57:56.998Z,36.75
2024-05-09T03:00:29.720Z,36.88
2024-05-09T03:03:06.125Z,37.95
2024-05-09T03:05:32.646Z,36.50
2024-05-09T03:07:58.897Z,35.08
2024-05-09T03:10:28.653Z,35.45
2024-05-09T03:12:55.455Z,36.75
2024-05-09T03:15:21.796Z,35.13
2024-05-09T03:17:48.435Z,39.53
2024-05-09T03:20:23.388Z,31.90
2024-05-09T03:22:52.691Z,34.40
2024-05-09T03:25:20.135Z,35.17
2024-05-09T03:27:46.268Z,36.03
2024-05-09T03:30:18.383Z,36.38
2024-05-09T03:32:48.567Z,34.90
2024-05-09T03:35:16.960Z,34.17
2024-05-09T03:37:43.130Z,34.80
2024-05-09T03:40:17.518Z,36.42
2024-05-09T03:42:46.990Z,33.40
2024-05-09T03:45:13.306Z,34.20
2024-05-09T03:47:39.788Z,32.55
2024-05-09T03:50:14.970Z,33.97
2024-05-09T03:52:46.301Z,34.05
2024-05-09T03:55:12.596Z,36.28
2024-05-09T03:57:38.750Z,35.97
2024-05-09T04:00:12.257Z,35.67
2024-05-09T04:02:47.238Z,31.48
2024-05-09T04:05:13.712Z,30.83
2024-05-09T04:07:42.107Z,33.55
2024-05-09T04:10:17.104Z,33.22
2024-05-09T04:12:49.871Z,36.05
2024-05-09T04:15:16.019Z,31.83
2024-05-09T04:17:42.334Z,36.50
2024-05-09T04:20:12.429Z,33.85
2024-05-09T04:22:44.481Z,34.80
2024-05-09T04:25:12.829Z,33.58
2024-05-09T04:27:39.015Z,37.05
2024-05-09T04:30:09.857Z,36.67
2024-05-09T04:32:38.690Z,33.38
2024-05-09T04:35:05.138Z,36.55
2024-05-09T04:37:31.332Z,35.42
2024-05-09T04:39:57.446Z,36.50
2024-05-09T04:42:25.713Z,37.17
2024-05-09T04:44:53.542Z,36.28
2024-05-09T04:47:21.095Z,35.15
2024-05-09T04:49:47.542Z,34.70
2024-05-09T04:52:14.039Z,43.17
2024-05-09T04:54:40.197Z,42.25
2024-05-09T04:57:06.489Z,40.55
2024-05-09T04:59:34.762Z,42.08
2024-05-09T05:02:01.051Z,40.92
2024-05-09T05:04:27.273Z,39.00
2024-05-09T05:06:53.482Z,40.35
2024-05-09T05:09:19.624Z,36.95
2024-05-09T05:11:45.924Z,42.83
2024-05-09T05:14:12.108Z,42.45
2024-05-09T05:16:40.378Z,42.72
2024-05-09T05:19:10.912Z,44.80
2024-05-09T05:21:38.311Z,47.28
2024-05-09T05:24:05.036Z,46.38
2024-05-09T05:26:31.864Z,48.85
2024-05-09T05:28:58.086Z,50.88
2024-05-09T05:31:24.373Z,50.78
2024-05-09T05:33:52.766Z,53.70
2024-05-09T05:36:18.956Z,49.47
2024-05-09T05:38:45.267Z,51.47
2024-05-09T05:41:11.680Z,51.60
2024-05-09T05:43:37.848Z,51.17
2024-05-09T05:46:04.336Z,50.33
2024-05-09T05:48:30.540Z,51.92
2024-05-09T05:51:01.157Z,52.13
2024-05-09T05:53:28.895Z,55.42
2024-05-09T05:55:55.196Z,48.88
2024-05-09T05:58:21.367Z,48.50
2024-05-09T06:00:47.714Z,53.97
2024-05-09T06:03:14.463Z,51.05
2024-05-09T06:05:41.286Z,44.92
2024-05-09T06:08:09.716Z,47.45
2024-05-09T06:10:39.396Z,50.35
2024-05-09T06:13:07.911Z,47.33
2024-05-09T06:15:34.202Z,51.60
2024-05-09T06:18:00.779Z,48.03
2024-05-09T06:20:34.823Z,49.05
2024-05-09T06:23:04.053Z,49.58
2024-05-09T06:25:32.535Z,49.55
2024-05-09T06:27:58.843Z,47.05
2024-05-09T06:30:30.592Z,47.45
2024-05-09T06:33:05.061Z,49.67
2024-05-09T06:35:31.799Z,48.70
2024-05-09T06:37:58.208Z,49.08
2024-05-09T06:40:29.303Z,47.10
2024-05-09T06:43:02.697Z,47.22
2024-05-09T06:45:28.870Z,43.53
2024-05-09T06:47:55.237Z,44.30
2024-05-09T06:50:24.331Z,45.30
2024-05-09T06:52:54.315Z,44.85
2024-05-09T06:55:20.461Z,46.47
2024-05-09T06:57:46.759Z,44.33
2024-05-09T07:00:22.843Z,43.42
2024-05-09T07:02:56.792Z,38.90
2024-05-09T07:05:23.246Z,37.22
2024-05-09T07:07:49.509Z,35.08
2024-05-09T07:10:22.039Z,35.05
2024-05-09T07:12:54.861Z,37.03
2024-05-09T07:15:23.051Z,39.03
2024-05-09T07:17:49.376Z,38.72
2024-05-09T07:20:23.531Z,39.28
2024-05-09T07:22:58.281Z,36.75
2024-05-09T07:25:24.412Z,38.53
2024-05-09T07:27:50.653Z,41.53
2024-05-09T07:30:23.512Z,41.30
2024-05-09T07:32:58.861Z,37.60
2024-05-09T07:35:25.284Z,37.85
2024-05-09T07:37:51.645Z,39.22
2024-05-09T07:40:28.563Z,35.60
2024-05-09T07:43:02.711Z,35.65
2024-05-09T07:45:45.203Z,36.17
2024-05-09T07:53:38.085Z,33.13
2024-05-09T07:56:04.379Z,35.60
2024-05-09T07:58:30.554Z,31.83
2024-05-09T08:00:56.802Z,34.10
2024-05-09T08:03:25.155Z,34.17
2024-05-09T08:05:51.402Z,34.17
2024-05-09T08:08:17.572Z,32.97
2024-05-09T08:10:43.968Z,31.60
2024-05-09T08:13:10.237Z,32.53
2024-05-09T08:15:36.599Z,32.78
2024-05-09T08:18:03.316Z,29.17
2024-05-09T08:20:35.161Z,30.92
2024-05-09T08:25:28.408Z,31.83
2024-05-09T08:27:54.698Z,30.17
2024-05-09T08:30:25.476Z,25.95
2024-05-09T08:32:58.908Z,26.83
2024-05-09T08:35:25.105Z,27.85
2024-05-09T08:37:53.372Z,27.50
2024-05-09T08:40:27.897Z,24.08
2024-05-09T08:43:00.537Z,23.55
2024-05-09T08:45:26.833Z,27.77
2024-05-09T08:47:53.469Z,24.20
2024-05-09T08:50:31.463Z,19.23
2024-05-09T08:53:06.235Z,18.83
2024-05-09T08:55:32.699Z,19.50
2024-05-09T08:58:02.782Z,21.50
2024-05-09T09:00:36.333Z,17.60
2024-05-09T09:03:06.389Z,12.68
2024-05-09T09:05:37.285Z,14.35
2024-05-09T09:08:07.275Z,15.88
2024-05-09T09:10:33.797Z,12.95
2024-05-09T09:13:01.217Z,16.55
2024-05-09T09:15:27.462Z,12.30
2024-05-09T09:17:55.809Z,14.68
2024-05-09T09:20:28.757Z,12.68
2024-05-09T09:23:00.197Z,11.55
2024-05-09T09:25:28.374Z,11.43
2024-05-09T09:27:54.714Z,14.40
2024-05-09T09:30:31.871Z,14.07
2024-05-09T09:33:03.240Z,11.57
2024-05-09T09:35:29.470Z,11.15
2024-05-09T09:38:00.958Z,13.27
2024-05-09T09:40:35.822Z,11.45
2024-05-09T09:43:10.612Z,13.93
2024-05-09T09:45:37.487Z,14.77
2024-05-09T09:48:05.472Z,10.90
2024-05-09T09:50:35.401Z,11.20
2024-05-09T09:53:04.254Z,12.30
2024-05-09T09:55:33.021Z,12.68
2024-05-09T09:57:59.957Z,14.00
2024-05-09T10:00:32.446Z,13.45
2024-05-09T10:03:00.024Z,12.95
2024-05-09T10:05:27.004Z,12.00
2024-05-09T10:07:55.022Z,11.18
2024-05-09T10:10:29.875Z,13.07
2024-05-09T10:13:02.567Z,10.02
2024-05-09T10:15:29.210Z,10.60
2024-05-09T10:18:04.244Z,11.18
2024-05-09T10:20:39.339Z,11.65
2024-05-09T10:23:05.572Z,12.60
2024-05-09T10:25:31.777Z,10.32
2024-05-09T10:28:00.964Z,12.98
2024-05-09T10:30:34.005Z,13.82
2024-05-09T10:33:02.691Z,10.48
2024-05-09T10:35:31.439Z,11.20
2024-05-09T10:38:05.042Z,10.77
2024-05-09T10:40:32.040Z,10.93
2024-05-09T10:43:04.626Z,9.98
2024-05-09T10:45:34.716Z,9.95
2024-05-09T10:48:01.282Z,12.23
2024-05-09T10:50:31.842Z,9.75
2024-05-09T10:53:01.896Z,9.65
2024-05-09T10:55:28.135Z,9.70
2024-05-09T10:57:54.553Z,9.45
2024-05-09T11:00:33.717Z,9.05
2024-05-09T11:03:02.520Z,9.15
2024-05-09T11:05:29.010Z,8.90
2024-05-09T11:07:55.378Z,9.63
2024-05-09T11:10:27.743Z,8.18
2024-05-09T11:13:00.172Z,8.02
2024-05-09T11:15:37.129Z,8.07
2024-05-09T11:18:03.916Z,7.70
2024-05-09T11:20:35.318Z,9.88
2024-05-09T11:23:04.344Z,7.63
2024-05-09T11:25:30.826Z,9.45
2024-05-09T11:27:58.183Z,11.93
2024-05-09T11:30:30.042Z,10.00
2024-05-09T11:33:00.527Z,9.10
2024-05-09T11:35:26.785Z,8.77
2024-05-09T11:37:53.137Z,9.65
2024-05-09T11:40:25.325Z,8.13
2024-05-09T11:42:54.815Z,9.10
2024-05-09T11:45:21.008Z,8.43
2024-05-09T11:47:49.992Z,7.78
2024-05-09T11:50:26.890Z,10.38
2024-05-09T11:52:56.485Z,7.50
2024-05-09T11:55:26.831Z,6.70
2024-05-09T11:57:54.059Z,7.53
2024-05-09T12:00:29.164Z,6.85
2024-05-09T12:03:02.698Z,7.50
2024-05-09T12:05:31.022Z,8.23
2024-05-09T12:07:57.302Z,5.90
2024-05-09T12:10:32.077Z,6.80
2024-05-09T12:13:00.807Z,6.70
2024-05-09T12:15:26.957Z,5.28
2024-05-09T12:17:53.299Z,7.07
2024-05-09T12:20:28.646Z,7.18
2024-05-09T12:23:04.245Z,7.55
2024-05-09T12:25:30.387Z,7.85
2024-05-09T12:27:56.665Z,10.90
2024-05-09T12:30:32.765Z,7.32
2024-05-09T12:33:04.197Z,7.60
2024-05-09T12:35:30.800Z,7.25
2024-05-09T12:37:57.067Z,7.13
2024-05-09T12:40:34.304Z,6.68
2024-05-09T12:43:04.059Z,8.27
2024-05-09T12:45:30.391Z,9.90
2024-05-09T12:47:56.775Z,7.50
2024-05-09T12:50:29.900Z,6.85
2024-05-09T12:52:59.035Z,6.80
2024-05-09T12:55:28.436Z,7.90
2024-05-09T12:57:56.706Z,10.95
2024-05-09T13:00:28.216Z,6.80
2024-05-09T13:03:00.059Z,10.23
2024-05-09T13:05:26.536Z,7.30
2024-05-09T13:07:52.870Z,6.05
2024-05-09T13:10:28.722Z,6.78
2024-05-09T13:13:01.525Z,7.07
2024-05-09T13:15:29.263Z,6.60
2024-05-09T13:17:58.296Z,6.22
2024-05-09T13:23:01.538Z,6.30
2024-05-09T13:25:27.740Z,6.47
2024-05-09T13:27:54.184Z,7.25
2024-05-09T13:30:29.706Z,6.85
2024-05-09T13:33:05.274Z,9.07
2024-05-09T13:35:31.747Z,7.00
2024-05-09T13:37:57.972Z,5.93
2024-05-09T13:40:31.810Z,8.43
2024-05-09T13:43:00.566Z,5.43
2024-05-09T13:45:28.938Z,9.32
2024-05-09T13:47:55.634Z,5.85
2024-05-09T13:50:30.954Z,6.55
2024-05-09T13:53:01.124Z,6.60
2024-05-09T13:55:27.273Z,5.25
2024-05-09T13:57:53.790Z,5.53
2024-05-09T14:00:31.966Z,7.72
2024-05-09T14:03:08.533Z,5.97
2024-05-09T14:05:35.060Z,5.70
2024-05-09T14:08:01.348Z,6.07
2024-05-09T14:12:54.847Z,5.70
2024-05-09T14:15:21.070Z,4.82
2024-05-09T14:17:47.492Z,6.00
2024-05-09T14:20:23.837Z,5.10
2024-05-09T14:22:56.810Z,5.40
2024-05-09T14:25:23.034Z,5.90
2024-05-09T14:27:49.340Z,6.10
2024-05-09T14:30:22.929Z,8.25
2024-05-09T14:32:56.965Z,6.30
2024-05-09T14:35:25.217Z,13.98
2024-05-09T14:37:51.517Z,27.65
2024-05-09T14:40:30.699Z,10.60
2024-05-09T14:43:04.255Z,10.02
2024-05-09T14:45:31.429Z,8.00
2024-05-09T14:47:57.790Z,7.93
2024-05-09T14:50:34.623Z,5.38
2024-05-09T14:53:04.539Z,7.28
2024-05-09T14:55:30.891Z,9.07
2024-05-09T14:57:57.251Z,8.30
2024-05-09T15:00:28.890Z,4.95
2024-05-09T15:02:59.604Z,6.50
2024-05-09T15:05:27.964Z,8.05
2024-05-09T15:07:56.787Z,6.35
2024-05-09T15:10:31.150Z,7.68
2024-05-09T15:13:01.304Z,8.80
2024-05-09T15:15:27.667Z,8.98
2024-05-09T15:17:54.180Z,6.07
2024-05-09T15:20:27.409Z,7.00
2024-05-09T15:23:02.657Z,17.35
2024-05-09T15:25:29.186Z,15.18
2024-05-09T15:27:55.720Z,9.60
2024-05-09T15:30:29.958Z,7.00
2024-05-09T15:32:58.680Z,6.47
2024-05-09T15:35:24.874Z,8.27
2024-05-09T15:37:51.086Z,5.65
2024-05-09T15:40:26.831Z,6.40
2024-05-09T15:43:02.085Z,6.22
2024-05-09T15:45:28.364Z,6.18
2024-05-09T15:47:54.872Z,13.98
2024-05-09T15:50:28.833Z,7.55
2024-05-09T15:53:02.800Z,5.65
2024-05-09T15:55:30.974Z,5.93
2024-05-09T15:57:57.424Z,5.65
2024-05-09T16:00:29.174Z,7.88
2024-05-09T16:03:03.248Z,5.75
2024-05-09T16:05:29.694Z,7.10
2024-05-09T16:07:56.160Z,5.80
2024-05-09T16:10:26.037Z,7.50
2024-05-09T16:13:00.444Z,7.35
2024-05-09T16:15:26.601Z,6.95
2024-05-09T16:17:53.014Z,8.77
2024-05-09T16:20:29.899Z,7.35
2024-05-09T16:23:04.648Z,8.10
2024-05-09T16:25:30.827Z,9.40
2024-05-09T16:27:57.177Z,12.23
2024-05-09T16:30:32.021Z,14.73
2024-05-09T16:33:01.771Z,14.95
2024-05-09T16:35:28.183Z,16.55
2024-05-09T16:37:54.516Z,15.15
2024-05-09T16:40:29.367Z,16.75
2024-05-09T16:43:02.626Z,15.57
2024-05-09T16:45:30.957Z,13.57
2024-05-09T16:47:58.323Z,18.52
2024-05-09T16:50:29.501Z,14.75
2024-05-09T16:52:59.185Z,17.27
2024-05-09T16:55:25.351Z,16.92
2024-05-09T16:57:51.628Z,15.48
2024-05-09T17:00:22.670Z,17.42
2024-05-09T17:02:59.662Z,17.27
2024-05-09T17:05:25.995Z,16.08
2024-05-09T17:07:52.343Z,16.67
2024-05-09T17:10:26.628Z,18.45
2024-05-09T17:12:58.408Z,15.57
2024-05-09T17:15:24.587Z,16.02
2024-05-09T17:17:50.869Z,19.13
2024-05-09T17:20:29.253Z,18.08
2024-05-09T17:23:01.234Z,16.83
2024-05-09T17:25:27.529Z,18.58
2024-05-09T17:27:53.916Z,17.88
2024-05-09T17:30:28.658Z,18.88
2024-05-09T17:33:00.673Z,18.45
2024-05-09T17:35:29.061Z,16.30
2024-05-09T17:37:55.466Z,16.85
2024-05-09T17:40:30.707Z,17.30
2024-05-09T17:43:00.938Z,17.02
2024-05-09T17:45:27.131Z,18.65
2024-05-09T17:47:53.740Z,16.58
2024-05-09T17:50:27.426Z,18.05
2024-05-09T17:53:02.027Z,15.18
2024-05-09T17:55:28.279Z,19.40
2024-05-09T17:57:54.702Z,15.40
2024-05-09T18:00:29.227Z,15.52
2024-05-09T18:03:03.694Z,19.35
2024-05-09T18:05:30.143Z,21.83
2024-05-09T18:07:56.701Z,18.10
2024-05-09T18:10:32.789Z,17.55
2024-05-09T18:13:03.739Z,19.17
2024-05-09T18:15:29.984Z,19.15
2024-05-09T18:17:56.537Z,18.55
2024-05-09T18:20:32.743Z,16.75
2024-05-09T18:23:07.285Z,16.65
2024-05-09T18:25:35.619Z,17.15
2024-05-09T18:28:02.331Z,20.15
2024-05-09T18:30:34.378Z,16.10
2024-05-09T18:33:03.123Z,16.05
2024-05-09T18:35:29.503Z,20.58
2024-05-09T18:37:55.785Z,17.25
2024-05-09T18:40:31.183Z,17.80
2024-05-09T18:43:05.501Z,17.35
2024-05-09T18:45:33.175Z,17.98
2024-05-09T18:47:59.798Z,17.13
2024-05-09T18:50:34.341Z,17.08
2024-05-09T18:53:04.833Z,17.55
2024-05-09T18:55:31.006Z,17.45
2024-05-09T18:57:57.342Z,19.42
2024-05-09T19:00:33.824Z,16.48
2024-05-09T19:03:03.979Z,18.45
2024-05-09T19:05:30.588Z,17.17
2024-05-09T19:07:57.156Z,15.80
2024-05-09T19:10:26.391Z,15.65
2024-05-09T19:12:58.484Z,17.35
2024-05-09T19:15:26.714Z,19.52
2024-05-09T19:17:53.418Z,18.20
2024-05-09T19:20:25.504Z,16.65
2024-05-09T19:22:58.076Z,19.52
2024-05-09T19:25:24.241Z,16.65
2024-05-09T19:27:50.589Z,18.42
2024-05-09T19:30:25.340Z,18.17
2024-05-09T19:33:02.650Z,15.73
2024-05-09T19:35:28.887Z,18.35
2024-05-09T19:37:55.347Z,18.20
2024-05-09T19:40:28.886Z,19.05
2024-05-09T19:42:58.120Z,21.15
2024-05-09T19:45:24.279Z,17.50
2024-05-09T19:47:50.671Z,21.65
2024-05-09T19:50:26.702Z,21.10
2024-05-09T19:52:59.179Z,19.02
2024-05-09T19:55:25.353Z,19.83
2024-05-09T19:57:51.530Z,20.80
2024-05-09T20:00:22.380Z,24.13
2024-05-09T20:02:55.436Z,19.80
2024-05-09T20:05:23.949Z,17.83
2024-05-09T20:07:50.224Z,17.58
2024-05-09T20:10:23.456Z,21.45
2024-05-09T20:12:52.900Z,20.30
2024-05-09T20:15:19.079Z,20.27
2024-05-09T20:17:45.361Z,23.77
2024-05-09T20:20:20.289Z,22.63
2024-05-09T20:22:56.372Z,19.42
2024-05-09T20:25:22.547Z,19.85
2024-05-09T20:27:48.845Z,19.85
2024-05-09T20:30:24.639Z,18.90
2024-05-09T20:32:55.120Z,23.13
2024-05-09T20:35:21.355Z,24.60
2024-05-09T20:37:47.538Z,19.08
2024-05-09T20:40:21.871Z,23.77
2024-05-09T20:42:55.198Z,22.63
2024-05-09T20:45:21.361Z,20.02
2024-05-09T20:47:48.792Z,23.48
2024-05-09T20:50:23.790Z,19.50
2024-05-09T20:52:58.782Z,21.20
2024-05-09T20:55:26.982Z,21.85
2024-05-09T20:57:53.201Z,22.27
2024-05-09T21:00:25.910Z,20.75
2024-05-09T21:03:00.236Z,22.63
2024-05-09T21:05:26.511Z,21.55
2024-05-09T21:07:52.808Z,23.88
2024-05-09T21:10:22.542Z,24.02
2024-05-09T21:12:51.298Z,23.38
2024-05-09T21:15:17.440Z,23.80
2024-05-09T21:17:43.760Z,23.58
2024-05-09T21:20:16.905Z,23.48
2024-05-09T21:22:46.369Z,22.00
2024-05-09T21:25:12.871Z,25.40
2024-05-09T21:27:39.258Z,22.83
2024-05-09T21:30:13.204Z,22.13
2024-05-09T21:32:45.210Z,23.38
2024-05-09T21:35:11.522Z,24.98
2024-05-09T21:37:37.725Z,23.58
2024-05-09T21:40:09.178Z,24.65
2024-05-09T21:42:37.643Z,21.88
2024-05-09T21:45:04.533Z,23.75
2024-05-09T21:47:33.467Z,26.25
2024-05-09T21:49:59.631Z,23.75
2024-05-09T21:52:25.959Z,26.40
2024-05-09T21:54:52.121Z,25.42
2024-05-09T21:57:18.371Z,26.08
2024-05-09T21:59:44.548Z,23.48
2024-05-09T22:02:11.704Z,24.90
2024-05-09T22:04:40.965Z,25.10
2024-05-09T22:07:07.312Z,26.25
2024-05-09T22:09:33.502Z,25.90
2024-05-09T22:11:59.838Z,23.90
2024-05-09T22:14:26.023Z,25.40
2024-05-09T22:16:52.242Z,24.25
2024-05-09T22:19:18.499Z,23.23
2024-05-09T22:21:46.745Z,24.90
2024-05-09T22:24:12.897Z,23.83
2024-05-09T22:26:39.126Z,24.25
2024-05-09T22:29:05.258Z,23.73
2024-05-09T22:31:31.470Z,23.45
2024-05-09T22:33:57.936Z,24.30
2024-05-09T22:36:24.311Z,24.77
2024-05-09T22:38:52.448Z,22.65
2024-05-09T22:41:18.709Z,23.90
2024-05-09T22:43:44.890Z,23.60
2024-05-09T22:46:11.174Z,25.58
2024-05-09T22:48:37.488Z,23.35
2024-05-09T22:51:04.256Z,23.25
2024-05-09T22:53:30.386Z,23.35
2024-05-09T22:55:58.563Z,23.27
2024-05-09T22:58:24.823Z,23.25
2024-05-09T23:00:51.287Z,25.80
2024-05-09T23:03:17.672Z,23.73
2024-05-09T23:05:43.913Z,24.90
2024-05-09T23:08:10.290Z,24.80
2024-05-09T23:10:37.987Z,24.40
2024-05-09T23:13:07.810Z,23.23
2024-05-09T23:15:35.311Z,23.27
2024-05-09T23:18:01.619Z,24.98
2024-05-09T23:20:36.273Z,23.30
2024-05-09T23:23:05.294Z,24.42
2024-05-09T23:25:31.483Z,24.35
2024-05-09T23:27:57.718Z,21.83
2024-05-09T23:30:34.186Z,24.77
2024-05-09T23:33:05.449Z,24.10
2024-05-09T23:35:31.802Z,23.20
2024-05-09T23:37:58.039Z,22.75
2024-05-09T23:40:34.626Z,24.00
2024-05-09T23:43:04.835Z,25.15
2024-05-09T23:45:33.163Z,26.15
2024-05-09T23:47:59.643Z,28.45
2024-05-09T23:50:33.622Z,30.35
2024-05-09T23:53:03.053Z,27.67
2024-05-09T23:55:29.247Z,26.27
2024-05-09T23:57:55.586Z,27.42
